Time;durP1;ratioP1;P1;durP2;ratioP2;P2;SDS_P1;SDS_P2;PMS_P1;PMS_P2;Temp;Humidity;BMP_temperature;BMP_pressure;BME280_temperature;BME280_humidity;BME280_pressure;Samples;Min_cycle;Max_cycle;Signal;HPM_P1;HPM_P2
2023/03/21 00:02:23;;;;;;;20.95;14.23;;;;;;;18.72;71.55;98463.94;4945835;29;20050;-59
2023/03/21 00:05:13;;;;;;;20.80;14.48;;;;;;;18.71;71.63;98459.66;4935553;29;20101;-57
2023/03/21 00:07:56;;;;;;;20.08;14.23;;;;;;;18.67;71.73;98458.53;4941645;29;20062;-59
2023/03/21 00:10:45;;;;;;;20.23;14.32;;;;;;;18.65;71.90;98460.66;4946522;29;20419;-58
2023/03/21 00:13:31;;;;;;;20.75;15.35;;;;;;;18.64;71.98;98460.88;4939084;28;20154;-58
2023/03/21 00:16:22;;;;;;;20.93;14.13;;;;;;;18.68;71.57;98470.88;4949339;28;20050;-59
2023/03/21 00:19:09;;;;;;;19.20;14.32;;;;;;;18.61;71.79;98464.91;4946485;28;21039;-60
2023/03/21 00:21:58;;;;;;;20.40;14.15;;;;;;;18.58;71.81;98457.34;4946510;28;20047;-61
2023/03/21 00:24:48;;;;;;;18.08;13.13;;;;;;;18.52;71.99;98458.31;4932604;29;20066;-59
2023/03/21 00:27:37;;;;;;;22.02;12.55;;;;;;;18.49;72.17;98458.81;4948324;28;20527;-59
2023/03/21 00:30:39;;;;;;;19.65;13.25;;;;;;;18.50;72.14;98462.31;4945442;29;20130;-59
2023/03/21 00:33:28;;;;;;;20.98;13.98;;;;;;;18.50;72.18;98457.72;4946134;28;20070;-58
2023/03/21 00:36:12;;;;;;;22.23;14.80;;;;;;;18.45;72.27;98473.78;4946515;29;20055;-58
2023/03/21 00:39:01;;;;;;;18.95;12.75;;;;;;;18.43;72.28;98470.53;4945255;28;20048;-59
2023/03/21 00:41:43;;;;;;;20.50;13.60;;;;;;;18.40;72.26;98479.91;4948179;28;20055;-58
2023/03/21 00:44:35;;;;;;;20.60;13.98;;;;;;;18.37;72.35;98487.59;4950503;28;20050;-58
2023/03/21 00:47:18;;;;;;;20.92;14.82;;;;;;;18.36;72.24;98483.31;4937067;29;20514;-59
2023/03/21 00:50:07;;;;;;;20.23;14.20;;;;;;;18.38;72.26;98499.94;4954619;28;20115;-57
2023/03/21 00:52:49;;;;;;;19.63;14.20;;;;;;;18.37;72.21;98512.53;4942151;28;20078;-59
2023/03/21 00:55:44;;;;;;;17.80;12.60;;;;;;;18.38;71.99;98514.19;4935635;28;20039;-59
2023/03/21 00:58:19;;;;;;;21.02;13.68;;;;;;;18.36;71.89;98519.00;4944833;29;20113;-59
2023/03/21 01:01:09;;;;;;;24.33;16.20;;;;;;;18.21;72.21;98526.81;4941692;28;20139;-60
2023/03/21 01:04:03;;;;;;;22.42;15.98;;;;;;;18.25;72.23;98522.56;4928664;29;20043;-58
2023/03/21 01:07:00;;;;;;;27.10;18.45;;;;;;;18.28;72.40;98534.66;4928805;29;20562;-59
2023/03/21 01:09:36;;;;;;;26.55;17.50;;;;;;;18.26;72.13;98531.44;4929000;29;20051;-59
2023/03/21 01:12:31;;;;;;;30.30;19.53;;;;;;;18.22;72.40;98514.22;4928235;29;20561;-59
2023/03/21 01:15:07;;;;;;;30.98;20.40;;;;;;;18.21;72.49;98515.25;4928386;29;20294;-59
2023/03/21 01:17:56;;;;;;;30.33;21.10;;;;;;;18.22;72.39;98522.25;4912142;29;20130;-60
2023/03/21 01:20:38;;;;;;;34.15;21.88;;;;;;;18.25;72.46;98529.78;4928478;29;20057;-60
2023/03/21 01:23:28;;;;;;;33.15;21.67;;;;;;;18.26;72.23;98528.75;4913632;29;20059;-60
2023/03/21 01:26:10;;;;;;;33.10;22.15;;;;;;;18.27;72.36;98544.59;4928313;29;20456;-61
2023/03/21 01:28:59;;;;;;;31.85;21.85;;;;;;;18.31;72.33;98542.22;4926839;29;20653;-60
2023/03/21 01:31:41;;;;;;;31.00;21.70;;;;;;;18.41;71.92;98535.13;4912136;29;20127;-60
2023/03/21 01:34:30;;;;;;;33.35;22.95;;;;;;;18.45;71.92;98531.97;4912860;29;20047;-60
2023/03/21 01:37:13;;;;;;;36.72;23.23;;;;;;;18.45;71.77;98530.09;4911284;29;20135;-59
2023/03/21 01:40:03;;;;;;;33.80;23.75;;;;;;;18.49;71.60;98531.22;4911867;29;20056;-59
2023/03/21 01:42:54;;;;;;;34.58;23.95;;;;;;;18.52;71.46;98532.59;4910886;29;20395;-60
2023/03/21 01:46:09;;;;;;;34.67;22.20;;;;;;;18.64;71.12;98538.69;4934296;29;20134;-60
2023/03/21 01:49:38;;;;;;;34.42;23.48;;;;;;;18.66;71.16;98542.75;4911567;29;20079;-59
2023/03/21 01:52:32;;;;;;;36.40;24.40;;;;;;;18.69;71.05;98544.94;4940115;29;20063;-60
2023/03/21 01:55:48;;;;;;;36.17;23.00;;;;;;;18.74;70.98;98553.06;4928825;28;20082;-60
2023/03/21 01:58:56;;;;;;;34.40;22.88;;;;;;;18.79;70.98;98555.00;4929609;29;20137;-59
2023/03/21 02:02:26;;;;;;;34.88;22.48;;;;;;;18.89;70.82;98555.13;4883283;29;20649;-59
2023/03/21 02:05:49;;;;;;;31.20;22.10;;;;;;;19.23;70.00;98555.78;4856440;29;20052;-60
2023/03/21 02:08:43;;;;;;;35.13;22.77;;;;;;;19.70;68.46;98559.53;4916952;29;20051;-60
2023/03/21 02:11:29;;;;;;;35.42;21.17;;;;;;;20.11;66.91;98568.75;4929441;28;20054;-60
2023/03/21 02:14:25;;;;;;;31.00;20.30;;;;;;;20.48;65.57;98565.28;4928024;29;20047;-58
2023/03/21 02:17:58;;;;;;;29.35;20.42;;;;;;;20.97;64.05;98576.59;4922605;29;20043;-58
2023/03/21 02:21:36;;;;;;;28.65;20.02;;;;;;;21.48;62.39;98573.03;4897503;29;20071;-58
2023/03/21 02:24:38;;;;;;;28.90;19.08;;;;;;;21.78;61.08;98583.03;4928573;29;20137;-59
2023/03/21 02:27:28;;;;;;;26.52;16.42;;;;;;;22.16;60.21;98587.16;4929564;29;20054;-59
2023/03/21 02:30:51;;;;;;;23.90;16.95;;;;;;;22.42;59.21;98595.22;4936245;29;20051;-59
2023/03/21 02:33:37;;;;;;;23.55;15.98;;;;;;;22.84;57.74;98595.69;4924695;29;20199;-59
2023/03/21 02:36:33;;;;;;;21.23;15.00;;;;;;;23.19;56.68;98602.91;4929404;29;20368;-59
2023/03/21 02:39:46;;;;;;;27.73;15.52;;;;;;;23.32;56.14;98596.91;4920892;29;20167;-58
2023/03/21 02:42:38;;;;;;;20.45;14.07;;;;;;;23.03;56.81;98604.03;4926808;29;20180;-59
2023/03/21 02:45:59;;;;;;;22.25;14.75;;;;;;;22.87;56.55;98610.56;4941146;29;20771;-59
2023/03/21 02:49:02;;;;;;;18.52;13.32;;;;;;;22.95;57.20;98613.50;4908663;29;20462;-60
2023/03/21 02:51:54;;;;;;;19.13;13.82;;;;;;;22.93;57.49;98610.25;4911843;29;20600;-58
2023/03/21 02:54:42;;;;;;;19.58;14.20;;;;;;;22.95;57.23;98613.50;4915622;28;20059;-59
2023/03/21 02:57:40;;;;;;;22.67;15.45;;;;;;;23.35;56.53;98609.03;4927574;29;20047;-60
2023/03/21 03:00:28;;;;;;;21.17;13.40;;;;;;;23.46;56.12;98602.53;4923199;29;20089;-60
2023/03/21 03:03:20;;;;;;;23.13;15.45;;;;;;;23.54;55.87;98591.16;4907772;29;20732;-59
2023/03/21 03:06:32;;;;;;;26.50;17.17;;;;;;;23.23;55.87;98595.88;4926148;29;20050;-59
2023/03/21 03:09:39;;;;;;;28.65;17.25;;;;;;;22.91;56.33;98607.06;4910227;29;20055;-58
2023/03/21 03:12:51;;;;;;;25.20;17.85;;;;;;;22.83;57.63;98610.31;4938752;29;20652;-60
2023/03/21 03:15:50;;;;;;;22.10;16.05;;;;;;;23.03;57.34;98602.13;4912968;29;20056;-58
2023/03/21 03:18:55;;;;;;;25.15;17.13;;;;;;;22.80;57.70;98605.44;4921798;29;20131;-60
2023/03/21 03:21:45;;;;;;;26.33;18.15;;;;;;;22.15;59.37;98607.13;4915693;29;20063;-59
2023/03/21 03:24:56;;;;;;;23.55;15.95;;;;;;;22.43;59.12;98600.38;4906670;29;20063;-59
2023/03/21 03:27:43;;;;;;;21.98;15.43;;;;;;;22.23;59.52;98589.56;4913257;29;20047;-59
2023/03/21 03:30:35;;;;;;;22.63;15.05;;;;;;;22.59;59.37;98593.84;4914694;29;20123;-61
2023/03/21 03:33:33;;;;;;;24.30;16.83;;;;;;;21.44;61.75;98592.69;4886417;29;20068;-58
2023/03/21 03:36:26;;;;;;;23.40;15.40;;;;;;;21.87;61.15;98591.41;4911597;29;20085;-60
2023/03/21 03:39:22;;;;;;;21.38;16.02;;;;;;;21.63;60.64;98593.00;4899732;29;20394;-60
2023/03/21 03:42:21;;;;;;;25.50;16.55;;;;;;;21.15;61.40;98592.31;4921117;29;20044;-59
2023/03/21 03:45:20;;;;;;;25.35;17.90;;;;;;;21.58;62.29;98603.75;4919885;28;20054;-61
2023/03/21 03:48:28;;;;;;;33.75;17.77;;;;;;;21.24;60.57;98616.88;4894601;29;20048;-60
2023/03/21 03:51:35;;;;;;;25.33;17.48;;;;;;;21.03;62.33;98626.69;4884241;29;20067;-60
2023/03/21 03:54:43;;;;;;;23.45;17.55;;;;;;;21.27;61.61;98621.72;4937168;28;20043;-61
2023/03/21 03:57:33;;;;;;;22.48;16.63;;;;;;;21.60;61.25;98623.19;4931763;29;20150;-61
2023/03/21 04:00:16;;;;;;;27.20;16.75;;;;;;;21.59;61.62;98627.78;4949002;29;20462;-62
2023/03/21 04:03:06;;;;;;;23.92;16.58;;;;;;;21.66;59.88;98632.88;4932822;29;20047;-60
2023/03/21 04:05:49;;;;;;;34.03;18.45;;;;;;;21.04;62.58;98634.50;4948810;29;20054;-60
2023/03/21 04:08:38;;;;;;;25.55;17.83;;;;;;;21.61;62.62;98646.34;4931869;29;20462;-60
2023/03/21 04:11:20;;;;;;;19.40;14.80;;;;;;;21.40;60.93;98645.47;4931825;29;20051;-61
2023/03/21 04:14:09;;;;;;;24.27;15.98;;;;;;;21.69;61.86;98643.13;4931770;29;20090;-61
2023/03/21 04:16:53;;;;;;;26.17;14.30;;;;;;;22.27;61.18;98641.91;4932087;29;20480;-60
2023/03/21 04:19:42;;;;;;;23.00;16.10;;;;;;;22.33;61.97;98641.66;4948130;29;20321;-60
2023/03/21 04:22:28;;;;;;;22.45;14.18;;;;;;;21.89;60.26;98641.31;4931178;29;20059;-60
2023/03/21 04:25:17;;;;;;;24.00;14.27;;;;;;;21.48;61.15;98643.09;4931652;29;20063;-60
2023/03/21 04:28:13;;;;;;;20.25;12.98;;;;;;;21.74;60.41;98637.75;4930803;29;20578;-60
2023/03/21 04:31:12;;;;;;;15.73;11.80;;;;;;;21.34;62.36;98620.41;4931309;29;20101;-59
2023/03/21 04:34:16;;;;;;;22.00;11.80;;;;;;;22.43;61.79;98600.38;4930801;29;20047;-60
2023/03/21 04:37:09;;;;;;;19.20;13.40;;;;;;;22.25;59.99;98612.50;4941732;29;20069;-61
2023/03/21 04:40:07;;;;;;;23.13;14.05;;;;;;;21.83;60.08;98625.38;4934435;28;20065;-61
2023/03/21 04:42:43;;;;;;;17.70;12.77;;;;;;;22.24;60.57;98637.06;4944648;29;20474;-62
2023/03/21 04:45:33;;;;;;;19.30;13.13;;;;;;;22.49;60.03;98647.03;4930941;29;20657;-61
2023/03/21 04:48:16;;;;;;;22.67;13.18;;;;;;;22.55;60.17;98646.78;4943232;29;20118;-61
2023/03/21 04:51:13;;;;;;;22.83;13.52;;;;;;;23.33;59.84;98663.38;4931218;29;20063;-61
2023/03/21 04:53:51;;;;;;;18.17;12.60;;;;;;;23.85;59.10;98665.59;4937936;29;20047;-61
2023/03/21 04:56:47;;;;;;;23.27;14.88;;;;;;;24.07;57.81;98654.38;4917551;29;20770;-60
2023/03/21 04:59:26;;;;;;;17.90;13.50;;;;;;;23.97;57.69;98657.94;4937224;29;20262;-60
2023/03/21 05:02:15;;;;;;;20.63;14.68;;;;;;;23.62;56.41;98655.44;4929955;29;20728;-60
2023/03/21 05:04:50;;;;;;;22.90;15.32;;;;;;;23.02;56.98;98659.94;4943338;29;20047;-60
2023/03/21 05:07:39;;;;;;;21.42;15.25;;;;;;;22.93;58.64;98669.69;4934471;29;20047;-61
2023/03/21 05:10:21;;;;;;;19.92;13.85;;;;;;;23.17;58.80;98681.53;4921206;29;20043;-60
2023/03/21 05:13:11;;;;;;;19.60;14.27;;;;;;;23.86;57.53;98686.13;4927212;29;20050;-61
2023/03/21 05:15:55;;;;;;;19.83;15.00;;;;;;;23.55;57.63;98690.88;4929857;29;20058;-61
2023/03/21 05:18:44;;;;;;;17.67;14.15;;;;;;;23.79;56.59;98687.53;4924938;29;20503;-61
2023/03/21 05:21:32;;;;;;;17.65;14.05;;;;;;;23.16;57.52;98688.00;4929958;29;20079;-60
2023/03/21 05:24:28;;;;;;;24.60;13.85;;;;;;;24.08;57.39;98680.31;4912765;29;20544;-62
2023/03/21 05:27:12;;;;;;;20.70;14.30;;;;;;;24.55;56.77;98672.44;4909474;29;20051;-62
2023/03/21 05:30:02;;;;;;;23.58;16.20;;;;;;;24.51;57.03;98673.28;4922912;29;20350;-61
2023/03/21 05:32:44;;;;;;;23.83;16.25;;;;;;;24.58;57.09;98680.00;4923137;29;20673;-61
2023/03/21 05:35:33;;;;;;;25.08;17.00;;;;;;;24.72;57.72;98682.03;4924747;29;20071;-61
2023/03/21 05:38:18;;;;;;;37.20;18.63;;;;;;;24.50;53.32;98688.72;4907766;29;20052;-61
2023/03/21 05:41:07;;;;;;;26.48;17.83;;;;;;;24.69;56.92;98683.44;4902603;29;20055;-61
2023/03/21 05:43:49;;;;;;;31.92;21.52;;;;;;;24.79;56.86;98682.50;4923607;29;20043;-61
2023/03/21 05:46:38;;;;;;;32.78;20.48;;;;;;;24.28;58.26;98684.84;4933791;28;20047;-62
2023/03/21 05:49:21;;;;;;;32.05;22.30;;;;;;;24.13;58.53;98694.63;4944021;29;20130;-60
2023/03/21 05:52:12;;;;;;;34.47;24.13;;;;;;;24.46;56.62;98684.97;4940168;29;20143;-61
2023/03/21 05:55:00;;;;;;;39.05;27.50;;;;;;;23.69;53.97;98677.56;4942828;28;20086;-62
2023/03/21 05:57:56;;;;;;;37.22;25.33;;;;;;;23.79;57.72;98676.72;4934101;29;20420;-61
2023/03/21 06:00:31;;;;;;;33.67;25.50;;;;;;;23.57;57.70;98677.91;4935346;29;20058;-61
2023/03/21 06:03:32;;;;;;;32.85;24.83;;;;;;;23.59;58.56;98691.13;4918019;29;20133;-61
2023/03/21 06:06:22;;;;;;;40.58;27.27;;;;;;;23.54;59.08;98686.59;4911194;29;20510;-59
2023/03/21 06:09:17;;;;;;;41.72;27.00;;;;;;;23.47;60.08;98691.47;4927241;29;20435;-61
2023/03/21 06:11:57;;;;;;;58.25;31.60;;;;;;;23.36;61.04;98689.06;4912547;29;20114;-60
2023/03/21 06:15:18;;;;;;;55.58;36.22;;;;;;;23.05;62.31;98689.13;4898936;29;20048;-61
2023/03/21 06:18:08;;;;;;;60.75;38.97;;;;;;;22.85;63.25;98694.56;4908959;29;20070;-59
2023/03/21 06:21:17;;;;;;;62.97;39.40;;;;;;;22.69;62.49;98703.72;4925152;29;20106;-59
2023/03/21 06:23:59;;;;;;;55.67;37.28;;;;;;;22.54;63.22;98698.31;4927594;29;20125;-58
2023/03/21 06:26:54;;;;;;;49.92;34.60;;;;;;;22.60;63.50;98699.94;4902302;29;20053;-61
2023/03/21 06:29:42;;;;;;;48.88;33.55;;;;;;;22.54;63.01;98698.31;4901712;29;20063;-60
2023/03/21 06:32:38;;;;;;;;;;;;;;;22.52;61.21;98700.50;4911751;29;20058;-59
2023/03/21 06:35:17;;;;;;;36.63;24.65;;;;;;;22.44;61.86;98698.34;4922213;29;19949;-62
2023/03/21 06:38:13;;;;;;;35.88;22.55;;;;;;;22.53;62.42;98700.22;4930149;29;20052;-61
2023/03/21 06:40:49;;;;;;;33.67;19.73;;;;;;;22.49;62.71;98701.81;4912084;29;20059;-60
2023/03/21 06:43:45;;;;;;;22.35;17.50;;;;;;;22.44;63.14;98696.41;4912583;29;20657;-60
2023/03/21 06:46:29;;;;;;;23.75;16.85;;;;;;;22.43;63.09;98689.44;4906448;29;20058;-61
2023/03/21 06:49:22;;;;;;;20.92;16.65;;;;;;;22.56;63.35;98682.69;4910134;29;20040;-60
2023/03/21 06:52:12;;;;;;;23.80;15.85;;;;;;;22.55;63.71;98689.97;4910739;29;20047;-60
2023/03/21 06:55:08;;;;;;;22.50;16.75;;;;;;;22.53;63.19;98694.81;4908367;29;20071;-60
2023/03/21 06:57:56;;;;;;;20.00;14.95;;;;;;;;;;4913143;29;20051;-60
2023/03/21 07:00:47;;;;;;;22.20;15.77;;;;;;;22.67;62.27;98685.09;4929968;29;20826;-60
2023/03/21 07:03:39;;;;;;;21.55;16.13;;;;;;;22.58;63.53;98686.72;4930075;29;20058;-62
2023/03/21 07:06:21;;;;;;;28.97;16.37;;;;;;;22.59;61.82;98685.63;4949058;28;20078;-60
2023/03/21 07:09:17;;;;;;;21.73;16.55;;;;;;;22.63;63.34;98685.91;4958370;28;20390;-61
2023/03/21 07:11:54;;;;;;;20.50;16.42;;;;;;;22.63;63.45;98681.31;4946999;29;20051;-61
2023/03/21 07:15:05;;;;;;;20.67;15.80;;;;;;;22.70;63.37;98671.06;4952200;28;20146;-60
2023/03/21 07:17:54;;;;;;;27.58;16.48;;;;;;;22.90;62.35;98664.84;4949078;28;20571;-61
2023/03/21 07:20:39;;;;;;;21.05;16.30;;;;;;;23.32;62.11;98666.38;4932452;29;20047;-63
2023/03/21 07:23:30;;;;;;;25.98;17.73;;;;;;;23.41;62.51;98670.13;4947300;28;20059;-61
2023/03/21 07:26:14;;;;;;;25.90;17.15;;;;;;;23.27;62.28;98678.81;4939518;29;20159;-60
2023/03/21 07:29:05;;;;;;;26.88;17.42;;;;;;;22.99;60.13;98682.13;4931277;29;20396;-60
2023/03/21 07:31:47;;;;;;;23.50;18.48;;;;;;;22.97;60.49;98672.69;4929157;29;20345;-60
2023/03/21 07:34:36;;;;;;;21.08;17.38;;;;;;;22.93;62.20;98675.09;4932298;29;20059;-60
2023/03/21 07:37:19;;;;;;;21.40;17.83;;;;;;;23.07;62.17;98667.22;4943036;29;20055;-60
2023/03/21 07:40:09;;;;;;;22.23;17.55;;;;;;;23.30;61.94;98666.63;4929772;28;20101;-61
2023/03/21 07:42:52;;;;;;;24.60;17.48;;;;;;;23.41;61.74;98659.31;4930239;29;20049;-60
2023/03/21 07:45:50;;;;;;;23.13;18.88;;;;;;;23.41;62.68;98665.50;4929356;29;20043;-59
2023/03/21 07:48:33;;;;;;;21.40;18.65;;;;;;;23.50;61.29;98644.94;4927265;29;20106;-60
2023/03/21 07:51:22;;;;;;;24.45;18.67;;;;;;;23.61;60.49;98651.94;4942965;29;20043;-59
2023/03/21 07:54:05;;;;;;;22.40;17.98;;;;;;;23.78;60.36;98653.47;4927343;29;20514;-61
2023/03/21 07:57:01;;;;;;;24.60;18.10;;;;;;;23.90;59.93;98654.72;4943451;29;20055;-61
2023/03/21 07:59:36;;;;;;;21.77;18.42;;;;;;;23.88;57.22;98650.69;4943006;29;20051;-60
2023/03/21 08:02:33;;;;;;;26.52;18.67;;;;;;;23.92;59.28;98644.44;4943009;29;20051;-60
2023/03/21 08:05:10;;;;;;;26.60;18.48;;;;;;;23.89;59.65;98645.03;4941815;29;20062;-60
2023/03/21 08:08:06;;;;;;;23.27;18.33;;;;;;;23.93;59.33;98640.66;4943380;29;20051;-60
2023/03/21 08:10:43;;;;;;;22.55;17.67;;;;;;;23.96;59.71;98639.28;4942104;28;20510;-60
2023/03/21 08:13:39;;;;;;;27.98;19.90;;;;;;;23.97;59.59;98627.38;4943310;29;20557;-62
2023/03/21 08:16:15;;;;;;;25.63;18.85;;;;;;;24.00;59.84;98635.72;4943565;29;20088;-62
2023/03/21 08:19:10;;;;;;;21.93;18.47;;;;;;;23.92;59.01;98639.03;4943531;29;20439;-61
2023/03/21 08:21:45;;;;;;;21.63;18.25;;;;;;;23.65;60.08;98631.34;4942654;29;20290;-61
2023/03/21 08:24:41;;;;;;;22.48;18.20;;;;;;;23.51;60.21;98637.63;4942393;29;20450;-60
2023/03/21 08:27:16;;;;;;;21.25;17.42;;;;;;;23.38;59.55;98640.91;4943063;29;20523;-62
2023/03/21 08:30:12;;;;;;;25.50;16.83;;;;;;;23.44;57.70;98637.16;4943113;29;20051;-61
2023/03/21 08:32:48;;;;;;;26.20;17.77;;;;;;;23.39;56.08;98629.84;4942011;29;20071;-61
2023/03/21 08:35:46;;;;;;;22.77;17.55;;;;;;;23.54;57.91;98627.09;4943437;29;20052;-60
2023/03/21 08:38:21;;;;;;;25.08;17.02;;;;;;;23.73;58.37;98625.34;4940505;29;20596;-60
2023/03/21 08:41:11;;;;;;;21.45;16.30;;;;;;;23.83;57.14;98615.56;4942516;29;20050;-60
2023/03/21 08:43:54;;;;;;;24.98;17.40;;;;;;;23.92;57.67;98616.59;4942966;29;20047;-62
2023/03/21 08:46:43;;;;;;;18.50;15.77;;;;;;;24.27;57.06;98604.72;4943120;29;20593;-61
2023/03/21 08:49:25;;;;;;;21.63;16.85;;;;;;;24.17;55.54;98606.41;4942319;29;20375;-62
2023/03/21 08:52:15;;;;;;;21.38;14.32;;;;;;;24.32;50.17;98599.25;4940968;29;20075;-61
2023/03/21 08:54:57;;;;;;;15.68;13.32;;;;;;;24.48;53.93;98598.84;4940449;28;20066;-61
2023/03/21 08:57:52;;;;;;;21.13;13.57;;;;;;;24.41;54.89;98586.72;4905981;29;20061;-61
2023/03/21 09:00:27;;;;;;;17.92;12.98;;;;;;;24.31;52.66;98570.56;4922494;29;20059;-61
2023/03/21 09:03:26;;;;;;;16.40;12.95;;;;;;;24.34;52.50;98572.72;4922114;29;20087;-61
2023/03/21 09:06:01;;;;;;;13.38;10.10;;;;;;;24.24;48.84;98562.78;4923038;29;20047;-60
2023/03/21 09:08:52;;;;;;;14.13;10.57;;;;;;;24.26;51.34;98557.88;4923026;29;20135;-60
2023/03/21 09:11:34;;;;;;;16.20;10.65;;;;;;;24.09;53.36;98550.16;4922558;29;20057;-60
2023/03/21 09:14:23;;;;;;;14.43;10.60;;;;;;;24.13;50.60;98544.97;4929447;29;20079;-61
2023/03/21 09:17:09;;;;;;;14.70;10.50;;;;;;;24.14;51.51;98531.19;4923024;29;20107;-61
2023/03/21 09:20:10;;;;;;;13.48;9.82;;;;;;;24.10;52.79;98530.13;4923887;29;20039;-59
2023/03/21 09:22:53;;;;;;;13.82;9.02;;;;;;;24.14;50.95;98522.25;4921834;29;20063;-60
2023/03/21 09:25:44;;;;;;;12.20;7.93;;;;;;;24.06;51.25;98515.56;4917274;29;20055;-61
2023/03/21 09:28:34;;;;;;;11.60;7.18;;;;;;;23.80;49.12;98526.88;4927316;29;20108;-62
2023/03/21 09:31:21;;;;;;;9.73;7.32;;;;;;;23.66;51.19;98513.19;4922070;29;20071;-61
2023/03/21 09:34:10;;;;;;;9.25;6.43;;;;;;;23.56;46.11;98516.75;4920323;29;20055;-60
2023/03/21 09:37:01;;;;;;;13.57;7.68;;;;;;;23.66;45.82;98505.88;4920120;29;20107;-61
2023/03/21 09:39:43;;;;;;;12.90;7.85;;;;;;;23.83;45.58;98496.53;4921566;29;20123;-60
2023/03/21 09:42:58;;;;;;;10.18;7.45;;;;;;;23.93;49.43;98482.94;4907137;29;20067;-61
2023/03/21 09:45:59;;;;;;;9.77;7.60;;;;;;;23.94;50.43;98477.22;4924000;29;20075;-61
2023/03/21 09:49:09;;;;;;;9.93;7.30;;;;;;;23.72;49.91;98466.09;4928496;29;20097;-61
2023/03/21 09:51:49;;;;;;;;;;;;;;;23.69;51.18;98459.34;4921897;29;20118;-60
2023/03/21 09:54:48;;;;;;;11.98;7.03;;;;;;;23.71;49.63;98443.66;4922365;29;19931;-62
2023/03/21 09:57:42;;;;;;;12.05;7.32;;;;;;;23.79;46.74;98434.09;4942870;28;20067;-60
2023/03/21 10:00:38;;;;;;;10.07;7.10;;;;;;;23.74;48.27;98431.44;4956829;28;20074;-62
2023/03/21 10:03:24;;;;;;;10.90;7.03;;;;;;;23.70;44.85;98425.00;4957434;28;20479;-61
2023/03/21 10:06:26;;;;;;;9.10;6.70;;;;;;;23.64;46.75;98412.59;4953125;28;20051;-60
2023/03/21 10:09:21;;;;;;;9.57;6.80;;;;;;;23.65;49.19;98400.69;4948803;28;20290;-60
2023/03/21 10:12:15;;;;;;;13.07;8.48;;;;;;;23.59;46.08;98391.00;4956849;28;20069;-62
2023/03/21 10:14:59;;;;;;;10.18;7.53;;;;;;;23.55;50.95;98387.25;4956943;28;20046;-61
2023/03/21 10:17:54;;;;;;;13.20;8.25;;;;;;;23.46;50.44;98378.97;4945996;28;20213;-61
2023/03/21 10:20:38;;;;;;;16.08;9.60;;;;;;;23.50;49.98;98371.88;4943410;28;20527;-60
2023/03/21 10:23:31;;;;;;;12.68;9.00;;;;;;;23.44;51.74;98366.81;4945507;28;20614;-62
2023/03/21 10:26:13;;;;;;;15.73;9.45;;;;;;;23.47;51.58;98361.66;4941345;29;20680;-58
2023/03/21 10:29:07;;;;;;;11.27;9.13;;;;;;;23.44;47.51;98354.13;4948045;28;20082;-60
2023/03/21 10:31:51;;;;;;;11.07;8.55;;;;;;;23.46;51.35;98354.63;4955222;28;20150;-60
2023/03/21 10:34:53;;;;;;;12.80;9.20;;;;;;;23.49;50.38;98351.38;4928273;29;20047;-62
2023/03/21 10:37:36;;;;;;;11.65;8.27;;;;;;;23.43;50.96;98352.47;4945155;29;20589;-61
2023/03/21 10:40:25;;;;;;;11.80;8.10;;;;;;;23.48;49.81;98340.84;4955503;28;20069;-62
2023/03/21 10:43:43;;;;;;;8.68;5.80;;;;;;;23.49;47.10;98335.16;4953577;28;20051;-59
2023/03/21 10:46:33;;;;;;;9.20;6.40;;;;;;;23.64;44.50;98328.78;4954336;28;20093;-61
2023/03/21 10:49:22;;;;;;;9.65;6.20;;;;;;;23.61;49.73;98316.66;4949185;28;20063;-61
2023/03/21 10:52:27;;;;;;;10.38;5.65;;;;;;;23.55;46.44;98315.06;4945020;28;20062;-60
2023/03/21 10:55:54;;;;;;;6.53;5.38;;;;;;;23.54;47.52;98307.28;4949204;28;20118;-60
2023/03/21 10:58:48;;;;;;;8.00;5.80;;;;;;;23.55;48.00;98298.84;4925701;29;20091;-60
2023/03/21 11:01:54;;;;;;;8.45;5.22;;;;;;;23.60;43.80;98301.50;4943922;29;20538;-60
2023/03/21 11:04:45;;;;;;;10.07;5.70;;;;;;;23.57;44.25;98290.47;4943787;29;20161;-60
2023/03/21 11:07:30;;;;;;;6.95;5.50;;;;;;;23.61;47.84;98277.97;4944892;29;20091;-60
2023/03/21 11:10:32;;;;;;;7.03;5.35;;;;;;;23.57;48.21;98276.94;4943053;29;20083;-61
2023/03/21 11:13:29;;;;;;;9.13;5.93;;;;;;;23.56;46.43;98272.63;4942736;29;20451;-61
2023/03/21 11:16:39;;;;;;;10.52;6.50;;;;;;;23.52;48.51;98258.06;4942912;29;20047;-60
2023/03/21 11:19:41;;;;;;;6.55;5.57;;;;;;;23.47;49.20;98258.94;4911590;29;21267;-60
2023/03/21 11:22:26;;;;;;;9.50;5.55;;;;;;;23.48;47.01;98251.63;4934289;29;20466;-60
2023/03/21 11:25:28;;;;;;;9.98;6.20;;;;;;;23.57;45.67;98247.22;4943654;29;20051;-59
2023/03/21 11:28:16;;;;;;;12.25;6.03;;;;;;;23.63;44.93;98251.47;4944083;29;20530;-61
2023/03/21 11:31:10;;;;;;;10.50;7.20;;;;;;;23.58;44.81;98262.34;4943411;29;20059;-59
2023/03/21 11:33:55;;;;;;;10.70;7.15;;;;;;;23.55;45.65;98274.53;4943290;29;20484;-59
2023/03/21 11:36:44;;;;;;;12.05;7.97;;;;;;;23.62;46.01;98280.41;4941827;29;20161;-59
2023/03/21 11:39:42;;;;;;;13.95;7.15;;;;;;;23.59;47.36;98274.75;4936720;29;20055;-60
2023/03/21 11:42:43;;;;;;;15.55;8.18;;;;;;;23.57;46.43;98274.25;4942330;29;20130;-59
2023/03/21 11:45:28;;;;;;;11.15;7.85;;;;;;;23.56;47.91;98286.13;4940373;28;20538;-61
2023/03/21 11:48:20;;;;;;;11.60;7.50;;;;;;;23.54;46.81;98285.63;4941968;29;20066;-60
2023/03/21 11:51:19;;;;;;;10.98;8.57;;;;;;;23.51;47.12;98289.72;4943459;29;20404;-60
2023/03/21 11:54:45;;;;;;;16.45;9.48;;;;;;;23.51;47.22;98292.41;4942544;29;20074;-61
2023/03/21 11:57:36;;;;;;;16.63;10.95;;;;;;;23.47;47.29;98306.78;4945280;28;20590;-60
2023/03/21 12:00:53;;;;;;;11.40;9.43;;;;;;;23.46;47.99;98322.19;4943332;29;20050;-61
2023/03/21 12:03:55;;;;;;;13.07;9.95;;;;;;;23.37;48.23;98323.88;4943947;28;20085;-60
2023/03/21 12:06:53;;;;;;;13.18;9.93;;;;;;;23.31;49.11;98329.63;4952320;28;20370;-59
2023/03/21 12:10:10;;;;;;;15.25;10.60;;;;;;;23.20;49.23;98334.28;4951460;28;20794;-60
2023/03/21 12:13:03;;;;;;;12.57;9.75;;;;;;;23.10;51.43;98327.06;4962045;28;20054;-60
2023/03/21 12:15:54;;;;;;;15.82;10.35;;;;;;;23.03;51.19;98334.69;4959067;28;20103;-60
2023/03/21 12:18:57;;;;;;;15.48;11.80;;;;;;;22.88;52.21;98337.50;4942769;28;20083;-60
2023/03/21 12:21:53;;;;;;;13.20;10.80;;;;;;;22.82;51.94;98341.34;4961075;28;20054;-61
2023/03/21 12:25:00;;;;;;;23.35;12.52;;;;;;;22.79;52.19;98336.50;4953620;28;20051;-60
2023/03/21 12:28:06;;;;;;;15.70;10.65;;;;;;;22.73;52.42;98345.72;4947616;28;20123;-60
2023/03/21 12:31:33;;;;;;;15.75;10.45;;;;;;;22.69;53.05;98355.44;4953426;28;20480;-60
2023/03/21 12:34:46;;;;;;;13.15;10.85;;;;;;;22.65;53.18;98354.38;4943465;28;20542;-59
2023/03/21 12:37:54;;;;;;;15.43;10.75;;;;;;;22.61;53.20;98356.03;4956793;28;20609;-59
2023/03/21 12:41:13;;;;;;;21.25;11.55;;;;;;;22.54;53.52;98361.72;4944118;28;20096;-60
2023/03/21 12:44:08;;;;;;;14.07;10.38;;;;;;;22.56;54.69;98377.66;4941696;28;20078;-60
2023/03/21 12:47:30;;;;;;;15.30;9.63;;;;;;;22.51;54.87;98383.06;4948894;28;20479;-60
2023/03/21 12:50:26;;;;;;;15.05;10.38;;;;;;;22.46;54.50;98383.09;4863112;29;20435;-60
2023/03/21 12:53:19;;;;;;;15.32;11.48;;;;;;;22.40;54.35;98388.50;4942338;29;20055;-58
2023/03/21 12:56:26;;;;;;;15.32;11.73;;;;;;;22.34;54.88;98392.31;4948934;28;20525;-60
2023/03/21 12:59:15;;;;;;;14.60;10.63;;;;;;;22.33;55.55;98404.19;4925156;29;20055;-61
2023/03/21 13:02:37;;;;;;;17.07;11.00;;;;;;;22.30;55.71;98403.94;4923145;29;20060;-60
2023/03/21 13:05:21;;;;;;;15.77;10.93;;;;;;;22.29;56.14;98403.13;4922706;29;20294;-60
2023/03/21 13:08:42;;;;;;;13.43;10.15;;;;;;;22.27;56.48;98405.28;4922803;29;20051;-60
2023/03/21 13:11:22;;;;;;;18.52;10.65;;;;;;;22.23;57.01;98415.00;4922037;29;20111;-61
2023/03/21 13:14:31;;;;;;;19.38;11.60;;;;;;;22.22;57.77;98420.66;4582043;29;10000366;-60
2023/03/21 13:17:18;;;;;;;23.75;11.95;;;;;;;22.18;57.60;98420.41;4921979;29;20134;-61
2023/03/21 13:20:53;;;;;;;23.83;12.50;;;;;;;22.18;58.70;98427.69;4922393;29;20056;-61